sensor_id;sensor_type;location;lat;lon;timestamp;temperature;humidity
22838;DHT22;11585;51.450;-0.240;2024-02-23T00:01:59;7.30;99.90
22838;DHT22;11585;51.450;-0.240;2024-02-23T00:04:25;7.20;99.90
22838;DHT22;11585;51.450;-0.240;2024-02-23T00:06:51;7.20;99.90
22838;DHT22;11585;51.450;-0.240;2024-02-23T00:09:17;7.20;99.90
22838;DHT22;11585;51.450;-0.240;2024-02-23T00:11:42;7.20;99.90
22838;DHT22;11585;51.450;-0.240;2024-02-23T00:14:11;7.20;99.90
22838;DHT22;11585;51.450;-0.240;2024-02-23T00:16:41;7.20;99.90
22838;DHT22;11585;51.450;-0.240;2024-02-23T00:19:07;7.20;99.90
22838;DHT22;11585;51.450;-0.240;2024-02-23T00:21:33;7.20;99.90
22838;DHT22;11585;51.450;-0.240;2024-02-23T00:23:59;7.20;99.90
22838;DHT22;11585;51.450;-0.240;2024-02-23T00:26:24;7.20;99.90
22838;DHT22;11585;51.450;-0.240;2024-02-23T00:28:50;7.20;99.90
22838;DHT22;11585;51.450;-0.240;2024-02-23T00:31:16;7.20;99.90
22838;DHT22;11585;51.450;-0.240;2024-02-23T00:33:42;7.20;99.90
22838;DHT22;11585;51.450;-0.240;2024-02-23T00:36:08;7.20;99.90
22838;DHT22;11585;51.450;-0.240;2024-02-23T00:38:33;7.20;99.90
22838;DHT22;11585;51.450;-0.240;2024-02-23T00:40:59;7.20;99.90
22838;DHT22;11585;51.450;-0.240;2024-02-23T00:43:25;7.20;99.90
22838;DHT22;11585;51.450;-0.240;2024-02-23T00:45:50;7.20;99.90
22838;DHT22;11585;51.450;-0.240;2024-02-23T00:48:18;7.20;99.90
22838;DHT22;11585;51.450;-0.240;2024-02-23T00:50:44;7.20;99.90
22838;DHT22;11585;51.450;-0.240;2024-02-23T00:53:09;7.20;99.90
22838;DHT22;11585;51.450;-0.240;2024-02-23T00:55:35;7.20;99.90
22838;DHT22;11585;51.450;-0.240;2024-02-23T00:58:01;7.20;99.90
22838;DHT22;11585;51.450;-0.240;2024-02-23T01:00:27;7.20;99.90
22838;DHT22;11585;51.450;-0.240;2024-02-23T01:02:53;7.20;99.90
22838;DHT22;11585;51.450;-0.240;2024-02-23T01:05:19;7.20;99.90
22838;DHT22;11585;51.450;-0.240;2024-02-23T01:07:44;7.20;99.90
22838;DHT22;11585;51.450;-0.240;2024-02-23T01:10:10;7.20;99.90
22838;DHT22;11585;51.450;-0.240;2024-02-23T01:12:36;7.20;99.90
22838;DHT22;11585;51.450;-0.240;2024-02-23T01:15:05;7.20;99.90
22838;DHT22;11585;51.450;-0.240;2024-02-23T01:17:30;7.20;99.90
22838;DHT22;11585;51.450;-0.240;2024-02-23T01:23:02;7.20;99.90
22838;DHT22;11585;51.450;-0.240;2024-02-23T01:25:27;7.20;99.90
22838;DHT22;11585;51.450;-0.240;2024-02-23T01:27:53;7.20;99.90
22838;DHT22;11585;51.450;-0.240;2024-02-23T01:30:20;7.20;99.90
22838;DHT22;11585;51.450;-0.240;2024-02-23T01:32:46;7.20;99.90
22838;DHT22;11585;51.450;-0.240;2024-02-23T01:35:11;7.20;99.90
22838;DHT22;11585;51.450;-0.240;2024-02-23T01:37:37;7.20;99.90
22838;DHT22;11585;51.450;-0.240;2024-02-23T01:40:04;7.20;99.90
22838;DHT22;11585;51.450;-0.240;2024-02-23T01:42:30;7.10;99.90
22838;DHT22;11585;51.450;-0.240;2024-02-23T01:44:56;7.10;99.90
22838;DHT22;11585;51.450;-0.240;2024-02-23T01:47:23;7.10;99.90
22838;DHT22;11585;51.450;-0.240;2024-02-23T01:49:53;7.10;99.90
22838;DHT22;11585;51.450;-0.240;2024-02-23T01:52:20;7.10;99.90
22838;DHT22;11585;51.450;-0.240;2024-02-23T01:54:46;7.10;99.90
22838;DHT22;11585;51.450;-0.240;2024-02-23T01:57:11;7.10;99.90
22838;DHT22;11585;51.450;-0.240;2024-02-23T01:59:38;7.10;99.90
22838;DHT22;11585;51.450;-0.240;2024-02-23T02:02:05;7.10;99.90
22838;DHT22;11585;51.450;-0.240;2024-02-23T02:04:31;7.10;99.90
22838;DHT22;11585;51.450;-0.240;2024-02-23T02:06:59;7.10;99.90
22838;DHT22;11585;51.450;-0.240;2024-02-23T02:09:26;7.10;99.90
22838;DHT22;11585;51.450;-0.240;2024-02-23T02:11:51;7.10;99.90
22838;DHT22;11585;51.450;-0.240;2024-02-23T02:14:18;7.10;99.90
22838;DHT22;11585;51.450;-0.240;2024-02-23T02:16:44;7.10;99.90
22838;DHT22;11585;51.450;-0.240;2024-02-23T02:22:15;7.10;99.90
22838;DHT22;11585;51.450;-0.240;2024-02-23T02:24:40;7.10;99.90
22838;DHT22;11585;51.450;-0.240;2024-02-23T02:27:09;7.10;99.90
22838;DHT22;11585;51.450;-0.240;2024-02-23T02:29:37;7.10;99.90
22838;DHT22;11585;51.450;-0.240;2024-02-23T02:32:04;7.10;99.90
22838;DHT22;11585;51.450;-0.240;2024-02-23T02:34:29;7.10;99.90
22838;DHT22;11585;51.450;-0.240;2024-02-23T02:36:55;7.10;99.90
22838;DHT22;11585;51.450;-0.240;2024-02-23T02:39:52;7.10;99.90
22838;DHT22;11585;51.450;-0.240;2024-02-23T02:42:18;7.10;99.90
22838;DHT22;11585;51.450;-0.240;2024-02-23T02:44:43;7.10;99.90
22838;DHT22;11585;51.450;-0.240;2024-02-23T02:47:09;7.10;99.90
22838;DHT22;11585;51.450;-0.240;2024-02-23T02:49:54;7.10;99.90
22838;DHT22;11585;51.450;-0.240;2024-02-23T02:52:20;7.10;99.90
22838;DHT22;11585;51.450;-0.240;2024-02-23T02:54:48;7.10;99.90
22838;DHT22;11585;51.450;-0.240;2024-02-23T02:57:14;7.10;99.90
22838;DHT22;11585;51.450;-0.240;2024-02-23T02:59:41;7.10;99.90
22838;DHT22;11585;51.450;-0.240;2024-02-23T03:02:06;7.10;99.90
22838;DHT22;11585;51.450;-0.240;2024-02-23T03:04:32;7.10;99.90
22838;DHT22;11585;51.450;-0.240;2024-02-23T03:06:57;7.10;99.90
22838;DHT22;11585;51.450;-0.240;2024-02-23T03:09:28;7.10;99.90
22838;DHT22;11585;51.450;-0.240;2024-02-23T03:11:54;7.10;99.90
22838;DHT22;11585;51.450;-0.240;2024-02-23T03:14:19;7.40;99.90
22838;DHT22;11585;51.450;-0.240;2024-02-23T03:16:46;7.10;99.90
22838;DHT22;11585;51.450;-0.240;2024-02-23T03:19:15;7.10;99.90
22838;DHT22;11585;51.450;-0.240;2024-02-23T03:21:41;7.10;99.90
22838;DHT22;11585;51.450;-0.240;2024-02-23T03:24:06;7.10;99.90
22838;DHT22;11585;51.450;-0.240;2024-02-23T03:26:32;7.10;99.90
22838;DHT22;11585;51.450;-0.240;2024-02-23T03:31:50;7.10;99.90
22838;DHT22;11585;51.450;-0.240;2024-02-23T03:34:16;7.10;99.90
22838;DHT22;11585;51.450;-0.240;2024-02-23T03:36:42;7.10;99.90
22838;DHT22;11585;51.450;-0.240;2024-02-23T03:39:10;7.20;99.90
22838;DHT22;11585;51.450;-0.240;2024-02-23T03:41:36;7.20;99.90
22838;DHT22;11585;51.450;-0.240;2024-02-23T03:44:01;7.20;99.90
22838;DHT22;11585;51.450;-0.240;2024-02-23T03:46:27;7.10;99.90
22838;DHT22;11585;51.450;-0.240;2024-02-23T03:48:54;7.10;99.90
22838;DHT22;11585;51.450;-0.240;2024-02-23T03:51:20;7.10;99.90
22838;DHT22;11585;51.450;-0.240;2024-02-23T03:53:45;7.20;99.90
22838;DHT22;11585;51.450;-0.240;2024-02-23T03:56:11;7.20;99.90
22838;DHT22;11585;51.450;-0.240;2024-02-23T03:58:37;7.10;99.90
22838;DHT22;11585;51.450;-0.240;2024-02-23T04:01:02;7.20;99.90
22838;DHT22;11585;51.450;-0.240;2024-02-23T04:03:28;7.20;99.90
22838;DHT22;11585;51.450;-0.240;2024-02-23T04:05:54;7.20;99.90
22838;DHT22;11585;51.450;-0.240;2024-02-23T04:08:25;7.10;99.90
22838;DHT22;11585;51.450;-0.240;2024-02-23T04:10:50;7.20;99.90
22838;DHT22;11585;51.450;-0.240;2024-02-23T04:13:16;7.20;99.90
22838;DHT22;11585;51.450;-0.240;2024-02-23T04:15:43;7.20;99.90
22838;DHT22;11585;51.450;-0.240;2024-02-23T04:18:09;7.10;99.90
22838;DHT22;11585;51.450;-0.240;2024-02-23T04:20:35;7.20;99.90
22838;DHT22;11585;51.450;-0.240;2024-02-23T04:23:00;7.20;99.90
22838;DHT22;11585;51.450;-0.240;2024-02-23T04:25:26;7.10;99.90
22838;DHT22;11585;51.450;-0.240;2024-02-23T04:27:52;7.10;99.90
22838;DHT22;11585;51.450;-0.240;2024-02-23T04:33:42;7.20;99.90
22838;DHT22;11585;51.450;-0.240;2024-02-23T04:36:07;7.20;99.90
22838;DHT22;11585;51.450;-0.240;2024-02-23T04:38:34;7.20;99.90
22838;DHT22;11585;51.450;-0.240;2024-02-23T04:41:03;7.20;99.90
22838;DHT22;11585;51.450;-0.240;2024-02-23T04:43:32;7.20;99.90
22838;DHT22;11585;51.450;-0.240;2024-02-23T04:45:58;7.20;99.90
22838;DHT22;11585;51.450;-0.240;2024-02-23T04:48:25;7.20;99.90
22838;DHT22;11585;51.450;-0.240;2024-02-23T04:50:50;7.20;99.90
22838;DHT22;11585;51.450;-0.240;2024-02-23T04:53:17;7.20;99.90
22838;DHT22;11585;51.450;-0.240;2024-02-23T04:55:42;7.20;99.90
22838;DHT22;11585;51.450;-0.240;2024-02-23T04:58:08;7.20;99.90
22838;DHT22;11585;51.450;-0.240;2024-02-23T05:00:34;7.20;99.90
22838;DHT22;11585;51.450;-0.240;2024-02-23T05:03:00;7.20;99.90
22838;DHT22;11585;51.450;-0.240;2024-02-23T05:05:29;7.20;99.90
22838;DHT22;11585;51.450;-0.240;2024-02-23T05:07:55;7.20;99.90
22838;DHT22;11585;51.450;-0.240;2024-02-23T05:10:39;7.20;99.90
22838;DHT22;11585;51.450;-0.240;2024-02-23T05:13:05;7.20;99.90
22838;DHT22;11585;51.450;-0.240;2024-02-23T05:15:31;7.20;99.90
22838;DHT22;11585;51.450;-0.240;2024-02-23T05:17:57;7.20;99.90
22838;DHT22;11585;51.450;-0.240;2024-02-23T05:20:23;7.20;99.90
22838;DHT22;11585;51.450;-0.240;2024-02-23T05:22:48;7.20;99.90
22838;DHT22;11585;51.450;-0.240;2024-02-23T05:25:14;7.30;99.90
22838;DHT22;11585;51.450;-0.240;2024-02-23T05:27:40;7.20;99.90
22838;DHT22;11585;51.450;-0.240;2024-02-23T05:33:29;7.30;99.90
22838;DHT22;11585;51.450;-0.240;2024-02-23T05:35:55;7.20;99.90
22838;DHT22;11585;51.450;-0.240;2024-02-23T05:38:22;7.20;99.90
22838;DHT22;11585;51.450;-0.240;2024-02-23T05:40:47;7.20;99.90
22838;DHT22;11585;51.450;-0.240;2024-02-23T05:43:14;7.30;99.90
22838;DHT22;11585;51.450;-0.240;2024-02-23T05:45:40;7.20;99.90
22838;DHT22;11585;51.450;-0.240;2024-02-23T05:48:06;7.20;99.90
22838;DHT22;11585;51.450;-0.240;2024-02-23T05:50:32;7.20;99.90
22838;DHT22;11585;51.450;-0.240;2024-02-23T05:52:58;7.20;99.90
22838;DHT22;11585;51.450;-0.240;2024-02-23T05:55:24;7.20;99.90
22838;DHT22;11585;51.450;-0.240;2024-02-23T05:57:49;7.20;99.90
22838;DHT22;11585;51.450;-0.240;2024-02-23T06:03:20;7.20;99.90
22838;DHT22;11585;51.450;-0.240;2024-02-23T06:05:46;7.20;99.90
22838;DHT22;11585;51.450;-0.240;2024-02-23T06:08:11;7.20;99.90
22838;DHT22;11585;51.450;-0.240;2024-02-23T06:10:37;7.20;99.90
22838;DHT22;11585;51.450;-0.240;2024-02-23T06:13:03;7.20;99.90
22838;DHT22;11585;51.450;-0.240;2024-02-23T06:15:29;7.20;99.90
22838;DHT22;11585;51.450;-0.240;2024-02-23T06:17:54;7.20;99.90
22838;DHT22;11585;51.450;-0.240;2024-02-23T06:20:24;7.20;99.90
22838;DHT22;11585;51.450;-0.240;2024-02-23T06:22:50;7.20;99.90
22838;DHT22;11585;51.450;-0.240;2024-02-23T06:25:16;7.20;99.90
22838;DHT22;11585;51.450;-0.240;2024-02-23T06:27:44;7.20;99.90
22838;DHT22;11585;51.450;-0.240;2024-02-23T06:30:29;7.20;99.90
22838;DHT22;11585;51.450;-0.240;2024-02-23T06:32:55;7.20;99.90
22838;DHT22;11585;51.450;-0.240;2024-02-23T06:35:20;7.20;99.90
22838;DHT22;11585;51.450;-0.240;2024-02-23T06:37:47;7.10;99.90
22838;DHT22;11585;51.450;-0.240;2024-02-23T06:40:14;7.10;99.90
22838;DHT22;11585;51.450;-0.240;2024-02-23T06:42:39;7.10;99.90
22838;DHT22;11585;51.450;-0.240;2024-02-23T06:45:06;7.10;99.90
22838;DHT22;11585;51.450;-0.240;2024-02-23T06:47:33;7.10;99.90
22838;DHT22;11585;51.450;-0.240;2024-02-23T06:49:59;7.10;99.90
22838;DHT22;11585;51.450;-0.240;2024-02-23T06:52:25;7.10;99.90
22838;DHT22;11585;51.450;-0.240;2024-02-23T06:54:51;7.10;99.90
22838;DHT22;11585;51.450;-0.240;2024-02-23T06:57:17;7.10;99.90
22838;DHT22;11585;51.450;-0.240;2024-02-23T06:59:44;7.10;99.90
22838;DHT22;11585;51.450;-0.240;2024-02-23T07:02:10;7.10;99.90
22838;DHT22;11585;51.450;-0.240;2024-02-23T07:04:36;7.10;99.90
22838;DHT22;11585;51.450;-0.240;2024-02-23T07:07:01;7.10;99.90
22838;DHT22;11585;51.450;-0.240;2024-02-23T07:09:33;7.10;99.90
22838;DHT22;11585;51.450;-0.240;2024-02-23T07:11:59;7.00;99.90
22838;DHT22;11585;51.450;-0.240;2024-02-23T07:14:25;7.10;99.90
22838;DHT22;11585;51.450;-0.240;2024-02-23T07:16:50;7.00;99.90
22838;DHT22;11585;51.450;-0.240;2024-02-23T07:19:18;7.10;99.90
22838;DHT22;11585;51.450;-0.240;2024-02-23T07:21:45;7.00;99.90
22838;DHT22;11585;51.450;-0.240;2024-02-23T07:24:11;7.00;99.90
22838;DHT22;11585;51.450;-0.240;2024-02-23T07:26:37;7.00;99.90
22838;DHT22;11585;51.450;-0.240;2024-02-23T07:31:50;7.00;99.90
22838;DHT22;11585;51.450;-0.240;2024-02-23T07:34:15;7.00;99.90
22838;DHT22;11585;51.450;-0.240;2024-02-23T07:36:42;7.00;99.90
22838;DHT22;11585;51.450;-0.240;2024-02-23T07:39:12;7.00;99.90
22838;DHT22;11585;51.450;-0.240;2024-02-23T07:41:38;7.00;99.90
22838;DHT22;11585;51.450;-0.240;2024-02-23T07:44:04;7.00;99.90
22838;DHT22;11585;51.450;-0.240;2024-02-23T07:46:29;7.00;99.90
22838;DHT22;11585;51.450;-0.240;2024-02-23T07:48:55;7.00;99.90
22838;DHT22;11585;51.450;-0.240;2024-02-23T07:51:21;7.00;99.90
22838;DHT22;11585;51.450;-0.240;2024-02-23T07:53:46;7.00;99.90
22838;DHT22;11585;51.450;-0.240;2024-02-23T07:56:12;7.00;99.90
22838;DHT22;11585;51.450;-0.240;2024-02-23T07:58:40;7.00;99.90
22838;DHT22;11585;51.450;-0.240;2024-02-23T08:01:05;7.00;99.90
22838;DHT22;11585;51.450;-0.240;2024-02-23T08:03:31;7.00;99.90
22838;DHT22;11585;51.450;-0.240;2024-02-23T08:05:57;7.00;99.90
22838;DHT22;11585;51.450;-0.240;2024-02-23T08:08:24;7.00;99.90
22838;DHT22;11585;51.450;-0.240;2024-02-23T08:10:52;7.00;99.90
22838;DHT22;11585;51.450;-0.240;2024-02-23T08:13:18;7.00;99.90
22838;DHT22;11585;51.450;-0.240;2024-02-23T08:15:43;7.00;99.90
22838;DHT22;11585;51.450;-0.240;2024-02-23T08:18:09;7.00;99.90
22838;DHT22;11585;51.450;-0.240;2024-02-23T08:20:36;7.00;99.90
22838;DHT22;11585;51.450;-0.240;2024-02-23T08:23:02;7.00;99.90
22838;DHT22;11585;51.450;-0.240;2024-02-23T08:25:27;7.00;99.90
22838;DHT22;11585;51.450;-0.240;2024-02-23T08:27:56;7.00;99.90
22838;DHT22;11585;51.450;-0.240;2024-02-23T08:30:23;7.00;99.90
22838;DHT22;11585;51.450;-0.240;2024-02-23T08:32:49;7.00;99.90
22838;DHT22;11585;51.450;-0.240;2024-02-23T08:35:15;7.00;99.90
22838;DHT22;11585;51.450;-0.240;2024-02-23T08:37:40;7.10;99.90
22838;DHT22;11585;51.450;-0.240;2024-02-23T08:40:10;7.10;99.90
22838;DHT22;11585;51.450;-0.240;2024-02-23T08:42:36;7.10;99.90
22838;DHT22;11585;51.450;-0.240;2024-02-23T08:45:02;7.00;99.90
22838;DHT22;11585;51.450;-0.240;2024-02-23T08:47:31;7.10;99.90
22838;DHT22;11585;51.450;-0.240;2024-02-23T08:50:03;7.10;99.90
22838;DHT22;11585;51.450;-0.240;2024-02-23T08:52:31;7.10;99.90
22838;DHT22;11585;51.450;-0.240;2024-02-23T08:55:01;7.10;99.90
22838;DHT22;11585;51.450;-0.240;2024-02-23T08:57:47;7.10;99.90
22838;DHT22;11585;51.450;-0.240;2024-02-23T09:00:16;7.10;99.90
22838;DHT22;11585;51.450;-0.240;2024-02-23T09:02:46;7.20;99.90
22838;DHT22;11585;51.450;-0.240;2024-02-23T09:05:12;7.10;99.90
22838;DHT22;11585;51.450;-0.240;2024-02-23T09:07:38;7.20;99.90
22838;DHT22;11585;51.450;-0.240;2024-02-23T09:10:06;7.20;99.90
22838;DHT22;11585;51.450;-0.240;2024-02-23T09:12:31;7.20;99.90
22838;DHT22;11585;51.450;-0.240;2024-02-23T09:14:57;7.20;99.90
22838;DHT22;11585;51.450;-0.240;2024-02-23T09:17:23;7.20;99.90
22838;DHT22;11585;51.450;-0.240;2024-02-23T09:19:49;7.20;99.90
22838;DHT22;11585;51.450;-0.240;2024-02-23T09:22:14;7.30;99.90
22838;DHT22;11585;51.450;-0.240;2024-02-23T09:24:41;7.20;99.90
22838;DHT22;11585;51.450;-0.240;2024-02-23T09:27:07;7.30;99.90
22838;DHT22;11585;51.450;-0.240;2024-02-23T09:29:34;7.30;99.90
22838;DHT22;11585;51.450;-0.240;2024-02-23T09:32:00;7.30;99.90
22838;DHT22;11585;51.450;-0.240;2024-02-23T09:34:26;7.30;99.90
22838;DHT22;11585;51.450;-0.240;2024-02-23T09:36:52;7.30;99.90
22838;DHT22;11585;51.450;-0.240;2024-02-23T09:39:18;7.40;99.90
22838;DHT22;11585;51.450;-0.240;2024-02-23T09:41:45;7.30;99.90
22838;DHT22;11585;51.450;-0.240;2024-02-23T09:44:12;7.40;99.90
22838;DHT22;11585;51.450;-0.240;2024-02-23T09:46:38;7.40;99.90
22838;DHT22;11585;51.450;-0.240;2024-02-23T09:49:05;7.40;99.90
22838;DHT22;11585;51.450;-0.240;2024-02-23T09:51:34;7.40;99.90
22838;DHT22;11585;51.450;-0.240;2024-02-23T09:54:01;7.40;99.90
22838;DHT22;11585;51.450;-0.240;2024-02-23T09:56:28;7.40;99.90
22838;DHT22;11585;51.450;-0.240;2024-02-23T09:58:58;7.50;99.90
22838;DHT22;11585;51.450;-0.240;2024-02-23T10:01:32;7.50;99.90
22838;DHT22;11585;51.450;-0.240;2024-02-23T10:04:01;7.50;99.90
22838;DHT22;11585;51.450;-0.240;2024-02-23T10:06:30;7.50;99.90
22838;DHT22;11585;51.450;-0.240;2024-02-23T10:08:55;7.50;99.90
22838;DHT22;11585;51.450;-0.240;2024-02-23T10:11:22;7.50;99.90
22838;DHT22;11585;51.450;-0.240;2024-02-23T10:13:48;7.60;99.90
22838;DHT22;11585;51.450;-0.240;2024-02-23T10:16:22;7.60;99.90
22838;DHT22;11585;51.450;-0.240;2024-02-23T10:18:48;7.60;99.90
22838;DHT22;11585;51.450;-0.240;2024-02-23T10:21:15;7.60;99.90
22838;DHT22;11585;51.450;-0.240;2024-02-23T10:23:41;7.60;99.90
22838;DHT22;11585;51.450;-0.240;2024-02-23T10:26:07;7.70;99.90
22838;DHT22;11585;51.450;-0.240;2024-02-23T10:28:34;7.70;99.90
22838;DHT22;11585;51.450;-0.240;2024-02-23T10:31:00;7.70;99.90
22838;DHT22;11585;51.450;-0.240;2024-02-23T10:33:27;7.70;99.90
22838;DHT22;11585;51.450;-0.240;2024-02-23T10:35:56;7.70;99.90
22838;DHT22;11585;51.450;-0.240;2024-02-23T10:38:26;7.70;99.90
22838;DHT22;11585;51.450;-0.240;2024-02-23T10:40:57;7.80;99.90
22838;DHT22;11585;51.450;-0.240;2024-02-23T10:43:40;7.80;99.90
22838;DHT22;11585;51.450;-0.240;2024-02-23T10:46:08;7.80;99.90
22838;DHT22;11585;51.450;-0.240;2024-02-23T10:48:42;7.80;99.90
22838;DHT22;11585;51.450;-0.240;2024-02-23T10:51:10;7.90;99.90
22838;DHT22;11585;51.450;-0.240;2024-02-23T10:53:36;7.90;99.90
22838;DHT22;11585;51.450;-0.240;2024-02-23T10:56:03;7.90;99.90
22838;DHT22;11585;51.450;-0.240;2024-02-23T10:58:30;7.90;99.90
22838;DHT22;11585;51.450;-0.240;2024-02-23T11:01:00;8.00;99.90
22838;DHT22;11585;51.450;-0.240;2024-02-23T11:03:29;8.00;99.90
22838;DHT22;11585;51.450;-0.240;2024-02-23T11:05:56;8.00;99.90
22838;DHT22;11585;51.450;-0.240;2024-02-23T11:08:22;8.00;99.90
22838;DHT22;11585;51.450;-0.240;2024-02-23T11:10:51;8.10;99.90
22838;DHT22;11585;51.450;-0.240;2024-02-23T11:13:38;8.10;99.90
22838;DHT22;11585;51.450;-0.240;2024-02-23T11:16:05;8.10;99.90
22838;DHT22;11585;51.450;-0.240;2024-02-23T11:18:35;8.10;99.90
22838;DHT22;11585;51.450;-0.240;2024-02-23T11:21:03;8.20;99.90
22838;DHT22;11585;51.450;-0.240;2024-02-23T11:23:49;8.20;99.90
22838;DHT22;11585;51.450;-0.240;2024-02-23T11:26:17;8.20;99.90
22838;DHT22;11585;51.450;-0.240;2024-02-23T11:28:52;8.20;99.90
22838;DHT22;11585;51.450;-0.240;2024-02-23T11:31:22;8.30;99.90
22838;DHT22;11585;51.450;-0.240;2024-02-23T11:33:53;8.30;99.90
22838;DHT22;11585;51.450;-0.240;2024-02-23T11:36:28;8.30;99.90
22838;DHT22;11585;51.450;-0.240;2024-02-23T11:38:56;8.30;99.90
22838;DHT22;11585;51.450;-0.240;2024-02-23T11:41:23;8.40;99.90
22838;DHT22;11585;51.450;-0.240;2024-02-23T11:43:50;8.40;99.90
22838;DHT22;11585;51.450;-0.240;2024-02-23T11:46:17;8.40;99.90
22838;DHT22;11585;51.450;-0.240;2024-02-23T11:48:43;8.40;99.90
22838;DHT22;11585;51.450;-0.240;2024-02-23T11:51:24;8.50;99.90
22838;DHT22;11585;51.450;-0.240;2024-02-23T11:53:52;8.50;99.90
22838;DHT22;11585;51.450;-0.240;2024-02-23T11:56:19;8.60;99.90
22838;DHT22;11585;51.450;-0.240;2024-02-23T11:58:46;8.60;99.90
22838;DHT22;11585;51.450;-0.240;2024-02-23T12:01:12;8.60;99.90
22838;DHT22;11585;51.450;-0.240;2024-02-23T12:03:38;8.60;99.90
22838;DHT22;11585;51.450;-0.240;2024-02-23T12:06:05;8.60;99.90
22838;DHT22;11585;51.450;-0.240;2024-02-23T12:08:32;8.70;99.90
22838;DHT22;11585;51.450;-0.240;2024-02-23T12:11:04;8.40;99.90
22838;DHT22;11585;51.450;-0.240;2024-02-23T12:13:30;8.70;99.90
22838;DHT22;11585;51.450;-0.240;2024-02-23T12:15:56;8.70;99.90
22838;DHT22;11585;51.450;-0.240;2024-02-23T12:18:22;8.70;99.90
22838;DHT22;11585;51.450;-0.240;2024-02-23T12:21:01;8.70;99.90
22838;DHT22;11585;51.450;-0.240;2024-02-23T12:23:42;8.70;99.90
22838;DHT22;11585;51.450;-0.240;2024-02-23T12:26:09;8.70;99.90
22838;DHT22;11585;51.450;-0.240;2024-02-23T12:28:36;8.70;99.90
22838;DHT22;11585;51.450;-0.240;2024-02-23T12:31:03;8.70;99.90
22838;DHT22;11585;51.450;-0.240;2024-02-23T12:33:33;8.80;99.90
22838;DHT22;11585;51.450;-0.240;2024-02-23T12:36:00;8.70;99.90
22838;DHT22;11585;51.450;-0.240;2024-02-23T12:38:26;8.80;99.90
22838;DHT22;11585;51.450;-0.240;2024-02-23T12:40:52;8.80;99.90
22838;DHT22;11585;51.450;-0.240;2024-02-23T12:43:18;8.80;99.90
22838;DHT22;11585;51.450;-0.240;2024-02-23T12:45:47;8.90;99.90
22838;DHT22;11585;51.450;-0.240;2024-02-23T12:48:15;8.90;99.90
22838;DHT22;11585;51.450;-0.240;2024-02-23T12:50:42;8.90;99.90
22838;DHT22;11585;51.450;-0.240;2024-02-23T12:53:09;8.90;99.90
22838;DHT22;11585;51.450;-0.240;2024-02-23T12:55:35;8.90;99.90
22838;DHT22;11585;51.450;-0.240;2024-02-23T12:58:02;8.90;99.90
22838;DHT22;11585;51.450;-0.240;2024-02-23T13:00:28;8.90;99.90
22838;DHT22;11585;51.450;-0.240;2024-02-23T13:02:54;9.00;99.90
22838;DHT22;11585;51.450;-0.240;2024-02-23T13:05:19;9.00;99.90
22838;DHT22;11585;51.450;-0.240;2024-02-23T13:07:45;9.00;99.90
22838;DHT22;11585;51.450;-0.240;2024-02-23T13:10:12;9.00;99.90
22838;DHT22;11585;51.450;-0.240;2024-02-23T13:12:38;9.00;99.90
22838;DHT22;11585;51.450;-0.240;2024-02-23T13:15:04;9.00;99.90
22838;DHT22;11585;51.450;-0.240;2024-02-23T13:17:30;9.00;99.90
22838;DHT22;11585;51.450;-0.240;2024-02-23T13:19:55;9.10;99.90
22838;DHT22;11585;51.450;-0.240;2024-02-23T13:22:21;9.10;99.90
22838;DHT22;11585;51.450;-0.240;2024-02-23T13:24:47;9.10;99.90
22838;DHT22;11585;51.450;-0.240;2024-02-23T13:27:12;9.10;99.90
22838;DHT22;11585;51.450;-0.240;2024-02-23T13:29:38;9.10;99.90
22838;DHT22;11585;51.450;-0.240;2024-02-23T13:32:04;9.10;99.90
22838;DHT22;11585;51.450;-0.240;2024-02-23T13:34:30;9.10;99.90
22838;DHT22;11585;51.450;-0.240;2024-02-23T13:36:55;9.10;99.90
22838;DHT22;11585;51.450;-0.240;2024-02-23T13:39:21;9.20;99.90
22838;DHT22;11585;51.450;-0.240;2024-02-23T13:41:46;9.20;99.90
22838;DHT22;11585;51.450;-0.240;2024-02-23T13:44:12;9.20;99.90
22838;DHT22;11585;51.450;-0.240;2024-02-23T13:46:38;9.20;99.90
22838;DHT22;11585;51.450;-0.240;2024-02-23T13:49:07;9.20;99.90
22838;DHT22;11585;51.450;-0.240;2024-02-23T13:51:34;9.20;99.90
22838;DHT22;11585;51.450;-0.240;2024-02-23T13:54:00;9.20;99.90
22838;DHT22;11585;51.450;-0.240;2024-02-23T13:56:26;9.20;99.90
22838;DHT22;11585;51.450;-0.240;2024-02-23T13:58:51;9.20;99.90
22838;DHT22;11585;51.450;-0.240;2024-02-23T14:01:17;9.30;99.90
22838;DHT22;11585;51.450;-0.240;2024-02-23T14:03:43;9.30;99.90
22838;DHT22;11585;51.450;-0.240;2024-02-23T14:06:08;9.30;99.90
22838;DHT22;11585;51.450;-0.240;2024-02-23T14:08:35;9.30;99.90
22838;DHT22;11585;51.450;-0.240;2024-02-23T14:11:03;9.30;99.90
22838;DHT22;11585;51.450;-0.240;2024-02-23T14:13:31;9.30;99.90
22838;DHT22;11585;51.450;-0.240;2024-02-23T14:15:57;9.30;99.90
22838;DHT22;11585;51.450;-0.240;2024-02-23T14:18:23;9.30;99.90
22838;DHT22;11585;51.450;-0.240;2024-02-23T14:20:49;9.30;99.90
22838;DHT22;11585;51.450;-0.240;2024-02-23T14:23:14;9.30;99.90
22838;DHT22;11585;51.450;-0.240;2024-02-23T14:25:40;9.30;99.90
22838;DHT22;11585;51.450;-0.240;2024-02-23T14:28:06;9.30;99.90
22838;DHT22;11585;51.450;-0.240;2024-02-23T14:30:32;9.40;99.90
22838;DHT22;11585;51.450;-0.240;2024-02-23T14:32:57;9.30;99.90
22838;DHT22;11585;51.450;-0.240;2024-02-23T14:35:23;9.30;99.90
22838;DHT22;11585;51.450;-0.240;2024-02-23T14:37:49;9.30;99.90
22838;DHT22;11585;51.450;-0.240;2024-02-23T14:40:14;9.30;99.90
22838;DHT22;11585;51.450;-0.240;2024-02-23T14:42:40;9.30;99.90
22838;DHT22;11585;51.450;-0.240;2024-02-23T14:45:06;9.30;99.90
22838;DHT22;11585;51.450;-0.240;2024-02-23T14:47:32;9.30;99.90
22838;DHT22;11585;51.450;-0.240;2024-02-23T14:49:59;9.30;99.90
22838;DHT22;11585;51.450;-0.240;2024-02-23T14:52:25;9.30;99.90
22838;DHT22;11585;51.450;-0.240;2024-02-23T14:54:51;9.30;99.90
22838;DHT22;11585;51.450;-0.240;2024-02-23T14:57:16;9.30;99.90
22838;DHT22;11585;51.450;-0.240;2024-02-23T14:59:42;9.30;99.90
22838;DHT22;11585;51.450;-0.240;2024-02-23T15:02:19;9.30;99.90
22838;DHT22;11585;51.450;-0.240;2024-02-23T15:04:44;9.30;99.90
22838;DHT22;11585;51.450;-0.240;2024-02-23T15:07:10;9.30;99.90
22838;DHT22;11585;51.450;-0.240;2024-02-23T15:09:35;9.30;99.90
22838;DHT22;11585;51.450;-0.240;2024-02-23T15:12:01;9.30;99.90
22838;DHT22;11585;51.450;-0.240;2024-02-23T15:14:27;9.30;99.90
22838;DHT22;11585;51.450;-0.240;2024-02-23T15:16:53;9.30;99.90
22838;DHT22;11585;51.450;-0.240;2024-02-23T15:19:18;9.30;99.90
22838;DHT22;11585;51.450;-0.240;2024-02-23T15:21:44;9.20;99.90
22838;DHT22;11585;51.450;-0.240;2024-02-23T15:24:10;9.20;99.90
22838;DHT22;11585;51.450;-0.240;2024-02-23T15:26:36;9.20;99.90
22838;DHT22;11585;51.450;-0.240;2024-02-23T15:29:01;9.20;99.90
22838;DHT22;11585;51.450;-0.240;2024-02-23T15:31:29;9.20;99.90
22838;DHT22;11585;51.450;-0.240;2024-02-23T15:33:55;9.20;99.90
22838;DHT22;11585;51.450;-0.240;2024-02-23T15:36:22;9.20;99.90
22838;DHT22;11585;51.450;-0.240;2024-02-23T15:38:48;9.20;99.90
22838;DHT22;11585;51.450;-0.240;2024-02-23T15:41:14;9.20;99.90
22838;DHT22;11585;51.450;-0.240;2024-02-23T15:43:39;9.10;99.90
22838;DHT22;11585;51.450;-0.240;2024-02-23T15:46:05;8.60;99.90
22838;DHT22;11585;51.450;-0.240;2024-02-23T15:48:31;9.10;99.90
22838;DHT22;11585;51.450;-0.240;2024-02-23T15:50:57;9.10;99.90